Time,TemperatureF,DewpointF,PressureIn,WindDirection,WindDirectionDegrees,WindSpeedMPH,WindSpeedGustMPH,Humidity,HourlyPrecipIn,Conditions,Clouds,dailyrainin,SoftwareType,DateUTC
2013-01-13 00:01:00,41.5,40.2,30.04,North,-999,0.0,0.0,95,0.00,,,0.00,pywws,2013-01-13 05:01:00,
2013-01-13 00:02:00,41.5,40.2,30.04,North,-999,0.0,0.0,95,0.00,,,0.00,pywws,2013-01-13 05:02:00,
2013-01-13 00:03:00,41.5,40.2,30.04,North,-999,0.0,0.0,95,0.00,,,0.00,pywws,2013-01-13 05:03:00,
2013-01-13 00:04:00,41.5,40.2,30.04,North,-999,0.0,0.0,95,0.00,,,0.00,pywws,2013-01-13 05:04:00,
2013-01-13 00:10:00,41.5,40.2,30.04,North,-999,0.0,0.0,95,0.00,,,0.00,pywws,2013-01-13 05:10:00,
2013-01-13 00:15:00,41.4,40.0,30.04,North,-999,0.0,0.0,95,0.00,,,0.00,pywws,2013-01-13 05:15:00,
2013-01-13 00:21:00,41.4,40.0,30.04,North,-999,0.0,0.0,95,0.00,,,0.00,pywws,2013-01-13 05:21:00,
2013-01-13 00:27:00,41.4,40.0,30.04,North,-999,0.0,0.0,95,0.00,,,0.00,pywws,2013-01-13 05:27:00,
2013-01-13 00:32:00,41.5,40.2,30.03,North,-999,0.0,0.0,95,0.00,,,0.00,pywws,2013-01-13 05:32:00,
2013-01-13 00:38:00,41.5,40.2,30.03,North,-999,0.0,0.7,95,0.00,,,0.00,pywws,2013-01-13 05:38:00,
2013-01-13 00:44:00,41.5,40.2,30.03,North,-999,0.0,0.0,95,0.00,,,0.00,pywws,2013-01-13 05:44:00,
2013-01-13 00:49:00,41.5,40.2,30.02,North,-999,0.0,0.0,95,0.00,,,0.00,pywws,2013-01-13 05:49:00,
2013-01-13 00:55:00,41.5,40.2,30.02,North,-999,0.0,0.0,95,0.00,,,0.00,pywws,2013-01-13 05:55:00,
2013-01-13 01:00:00,41.5,40.2,30.02,North,-999,0.0,0.0,95,0.00,,,0.00,pywws,2013-01-13 06:00:00,
2013-01-13 01:06:00,41.5,40.2,30.03,North,-999,0.0,0.0,95,0.00,,,0.00,pywws,2013-01-13 06:06:00,
2013-01-13 01:11:00,41.4,40.0,30.03,North,-999,0.0,0.0,95,0.00,,,0.00,pywws,2013-01-13 06:11:00,
2013-01-13 01:17:00,41.4,40.0,30.02,North,-999,0.0,0.0,95,0.00,,,0.00,pywws,2013-01-13 06:17:00,
2013-01-13 01:23:00,41.4,40.0,30.02,North,-999,0.0,0.7,95,0.00,,,0.00,pywws,2013-01-13 06:23:00,
2013-01-13 01:28:00,41.4,40.0,30.03,North,-999,0.0,0.0,95,0.00,,,0.00,pywws,2013-01-13 06:28:00,
2013-01-13 01:34:00,41.4,40.0,30.03,North,-999,0.0,0.0,95,0.00,,,0.00,pywws,2013-01-13 06:34:00,
2013-01-13 01:39:00,41.4,40.0,30.03,North,-999,0.0,0.0,95,0.00,,,0.00,pywws,2013-01-13 06:39:00,
2013-01-13 01:45:00,41.4,40.0,30.03,North,-999,0.0,0.0,95,0.00,,,0.00,pywws,2013-01-13 06:45:00,
2013-01-13 01:51:00,41.4,40.0,30.03,North,-999,0.0,0.0,95,0.00,,,0.00,pywws,2013-01-13 06:51:00,
2013-01-13 01:56:00,41.5,40.2,30.03,North,-999,0.0,0.0,95,0.00,,,0.00,pywws,2013-01-13 06:56:00,
2013-01-13 02:02:00,41.5,40.2,30.02,North,-999,0.0,0.0,95,0.00,,,0.00,pywws,2013-01-13 07:02:00,
2013-01-13 02:07:00,41.4,40.0,30.02,North,-999,0.0,0.7,95,0.00,,,0.00,pywws,2013-01-13 07:07:00,
2013-01-13 02:13:00,41.4,40.0,30.02,North,-999,0.0,0.7,95,0.00,,,0.00,pywws,2013-01-13 07:13:00,
2013-01-13 02:19:00,41.4,40.0,30.02,North,-999,0.0,1.6,95,0.00,,,0.00,pywws,2013-01-13 07:19:00,
2013-01-13 02:24:00,41.4,40.0,30.02,North,-999,0.0,0.7,95,0.00,,,0.00,pywws,2013-01-13 07:24:00,
2013-01-13 02:30:00,41.5,40.2,30.02,North,-999,0.0,0.7,95,0.00,,,0.00,pywws,2013-01-13 07:30:00,
2013-01-13 02:35:00,41.4,40.0,30.02,North,-999,0.0,1.6,95,0.00,,,0.00,pywws,2013-01-13 07:35:00,
2013-01-13 02:41:00,41.4,40.0,30.02,North,-999,0.0,0.7,95,0.00,,,0.00,pywws,2013-01-13 07:41:00,
2013-01-13 02:47:00,41.4,40.0,30.01,North,-999,0.0,0.0,95,0.00,,,0.00,pywws,2013-01-13 07:47:00,
2013-01-13 02:52:00,41.4,40.0,30.00,North,-999,0.0,0.0,95,0.00,,,0.00,pywws,2013-01-13 07:52:00,
2013-01-13 02:58:00,41.4,40.0,30.00,North,-999,0.0,0.0,95,0.00,,,0.00,pywws,2013-01-13 07:58:00,
2013-01-13 03:03:00,41.4,40.0,29.99,North,-999,0.0,0.7,95,0.00,,,0.00,pywws,2013-01-13 08:03:00,
2013-01-13 03:09:00,41.4,40.0,29.99,North,-999,0.0,0.0,95,0.00,,,0.00,pywws,2013-01-13 08:09:00,
2013-01-13 03:15:00,41.4,40.0,29.99,North,-999,0.0,0.0,95,0.00,,,0.00,pywws,2013-01-13 08:15:00,
2013-01-13 03:20:00,41.4,40.0,30.01,WSW,248,2.2,3.1,95,0.00,,,0.00,pywws,2013-01-13 08:20:00,
2013-01-13 03:26:00,41.2,39.9,29.99,NE,45,1.6,2.2,95,0.00,,,0.00,pywws,2013-01-13 08:26:00,
2013-01-13 03:31:00,41.4,40.0,29.97,NE,45,0.7,1.6,95,0.00,,,0.00,pywws,2013-01-13 08:31:00,
2013-01-13 03:37:00,41.4,40.0,29.98,South,180,0.7,1.6,95,0.00,,,0.00,pywws,2013-01-13 08:37:00,
2013-01-13 03:43:00,41.4,40.0,29.99,SW,225,0.7,1.6,95,0.00,,,0.00,pywws,2013-01-13 08:43:00,
2013-01-13 03:48:00,41.4,40.0,30.01,NW,315,2.2,3.1,95,0.00,,,0.00,pywws,2013-01-13 08:48:00,
2013-01-13 03:54:00,41.2,39.9,30.01,West,270,0.7,1.6,95,0.00,,,0.00,pywws,2013-01-13 08:54:00,
2013-01-13 03:59:00,41.4,40.0,30.00,North,0,0.7,1.6,95,0.00,,,0.00,pywws,2013-01-13 08:59:00,
2013-01-13 04:05:00,41.4,40.3,30.00,North,-999,0.0,0.0,96,0.00,,,0.00,pywws,2013-01-13 09:05:00,
2013-01-13 04:11:00,41.4,40.3,29.99,North,-999,0.0,0.0,96,0.00,,,0.00,pywws,2013-01-13 09:11:00,
2013-01-13 04:16:00,41.4,40.3,30.00,NW,315,0.7,1.6,96,0.00,,,0.00,pywws,2013-01-13 09:16:00,
2013-01-13 04:22:00,41.5,40.5,30.00,West,270,1.6,2.2,96,0.00,,,0.00,pywws,2013-01-13 09:22:00,
2013-01-13 04:27:00,41.5,40.5,29.99,South,180,1.6,2.2,96,0.00,,,0.00,pywws,2013-01-13 09:27:00,
2013-01-13 04:33:00,41.7,40.7,30.00,South,180,1.6,2.2,96,0.00,,,0.00,pywws,2013-01-13 09:33:00,
2013-01-13 04:39:00,41.7,40.7,29.99,NW,315,1.6,3.1,96,0.00,,,0.00,pywws,2013-01-13 09:39:00,
2013-01-13 04:44:00,41.7,40.7,30.00,West,270,1.6,2.2,96,0.00,,,0.00,pywws,2013-01-13 09:44:00,
2013-01-13 04:50:00,41.7,40.7,30.00,North,-999,0.0,0.7,96,0.00,,,0.00,pywws,2013-01-13 09:50:00,
2013-01-13 04:55:00,41.7,40.7,29.99,North,-999,0.0,0.0,96,0.00,,,0.00,pywws,2013-01-13 09:55:00,
2013-01-13 05:01:00,41.7,40.7,30.00,North,-999,0.0,0.0,96,0.00,,,0.00,pywws,2013-01-13 10:01:00,
2013-01-13 05:07:00,41.7,40.7,30.00,North,-999,0.0,0.0,96,0.00,,,0.00,pywws,2013-01-13 10:07:00,
2013-01-13 05:12:00,41.7,40.7,29.99,North,-999,0.0,0.0,96,0.00,,,0.00,pywws,2013-01-13 10:12:00,
2013-01-13 05:18:00,41.7,40.7,29.98,North,-999,0.0,0.7,96,0.00,,,0.00,pywws,2013-01-13 10:18:00,
2013-01-13 05:24:00,41.7,40.7,29.98,North,-999,0.0,0.0,96,0.00,,,0.00,pywws,2013-01-13 10:24:00,
2013-01-13 05:29:00,41.7,40.7,29.98,North,-999,0.0,0.0,96,0.00,,,0.00,pywws,2013-01-13 10:29:00,
2013-01-13 05:35:00,41.7,40.7,29.98,North,-999,0.0,0.0,96,0.00,,,0.00,pywws,2013-01-13 10:35:00,
2013-01-13 05:40:00,41.7,40.7,29.98,North,-999,0.0,0.7,96,0.00,,,0.00,pywws,2013-01-13 10:40:00,
2013-01-13 05:46:00,41.7,40.7,29.98,North,-999,0.0,0.0,96,0.00,,,0.00,pywws,2013-01-13 10:46:00,
2013-01-13 05:51:00,41.7,40.7,29.98,North,-999,0.0,0.0,96,0.00,,,0.00,pywws,2013-01-13 10:51:00,
2013-01-13 05:57:00,41.7,40.7,29.98,North,-999,0.0,0.0,96,0.00,,,0.00,pywws,2013-01-13 10:57:00,
2013-01-13 06:03:00,41.7,40.7,29.98,South,180,0.7,1.6,96,0.00,,,0.00,pywws,2013-01-13 11:03:00,
2013-01-13 06:08:00,41.7,40.7,29.98,North,-999,0.0,0.0,96,0.00,,,0.00,pywws,2013-01-13 11:08:00,
2013-01-13 06:14:00,41.7,40.7,29.98,North,-999,0.0,0.7,96,0.00,,,0.00,pywws,2013-01-13 11:14:00,
2013-01-13 06:19:00,41.7,40.7,29.98,North,-999,0.0,0.0,96,0.00,,,0.00,pywws,2013-01-13 11:19:00,
2013-01-13 06:25:00,41.7,40.7,29.98,North,-999,0.0,0.0,96,0.00,,,0.00,pywws,2013-01-13 11:25:00,
2013-01-13 06:31:00,41.7,40.7,29.98,North,-999,0.0,0.0,96,0.00,,,0.00,pywws,2013-01-13 11:31:00,
2013-01-13 06:36:00,41.7,40.7,29.98,North,-999,0.0,0.7,96,0.00,,,0.00,pywws,2013-01-13 11:36:00,
2013-01-13 06:42:00,41.7,40.7,29.98,North,-999,0.0,0.7,96,0.00,,,0.00,pywws,2013-01-13 11:42:00,
2013-01-13 06:47:00,41.7,40.7,29.98,East,90,0.7,1.6,96,0.00,,,0.00,pywws,2013-01-13 11:47:00,
2013-01-13 06:53:00,41.7,40.7,29.99,North,-999,0.0,0.7,96,0.00,,,0.00,pywws,2013-01-13 11:53:00,
2013-01-13 06:59:00,41.7,40.7,29.99,North,-999,0.0,0.0,96,0.00,,,0.00,pywws,2013-01-13 11:59:00,
2013-01-13 07:04:00,41.7,40.7,29.99,North,-999,0.0,0.7,96,0.00,,,0.00,pywws,2013-01-13 12:04:00,
2013-01-13 07:10:00,41.7,40.7,29.99,North,-999,0.0,1.6,96,0.00,,,0.00,pywws,2013-01-13 12:10:00,
2013-01-13 07:15:00,41.7,40.7,29.99,North,-999,0.0,0.0,96,0.00,,,0.00,pywws,2013-01-13 12:15:00,
2013-01-13 07:21:00,41.7,40.7,29.99,SE,135,0.7,1.6,96,0.00,,,0.00,pywws,2013-01-13 12:21:00,
2013-01-13 07:27:00,41.9,40.8,30.00,North,-999,0.0,0.0,96,0.00,,,0.00,pywws,2013-01-13 12:27:00,
2013-01-13 07:32:00,41.9,40.8,30.00,North,-999,0.0,0.7,96,0.00,,,0.00,pywws,2013-01-13 12:32:00,
2013-01-13 07:38:00,41.9,40.8,30.00,North,-999,0.0,0.0,96,0.00,,,0.00,pywws,2013-01-13 12:38:00,
2013-01-13 07:43:00,41.9,40.8,30.00,North,-999,0.0,0.7,96,0.00,,,0.00,pywws,2013-01-13 12:43:00,
2013-01-13 07:49:00,41.9,40.8,30.01,North,-999,0.0,0.0,96,0.00,,,0.00,pywws,2013-01-13 12:49:00,
2013-01-13 07:55:00,41.9,40.8,30.01,North,-999,0.0,0.7,96,0.00,,,0.00,pywws,2013-01-13 12:55:00,
2013-01-13 08:00:00,42.1,41.0,30.01,North,-999,0.0,1.6,96,0.00,,,0.00,pywws,2013-01-13 13:00:00,
2013-01-13 08:06:00,42.1,41.0,30.00,North,-999,0.0,1.6,96,0.00,,,0.00,pywws,2013-01-13 13:06:00,
2013-01-13 08:11:00,42.1,41.0,30.00,North,-999,0.0,1.6,96,0.00,,,0.00,pywws,2013-01-13 13:11:00,
2013-01-13 08:17:00,42.1,41.0,30.01,North,-999,0.0,0.0,96,0.00,,,0.00,pywws,2013-01-13 13:17:00,
2013-01-13 08:23:00,42.1,41.0,30.01,North,-999,0.0,0.0,96,0.00,,,0.00,pywws,2013-01-13 13:23:00,
2013-01-13 08:28:00,42.3,41.2,30.01,North,-999,0.0,0.7,96,0.00,,,0.00,pywws,2013-01-13 13:28:00,
2013-01-13 08:34:00,42.3,41.2,30.01,North,-999,0.0,0.7,96,0.00,,,0.00,pywws,2013-01-13 13:34:00,
2013-01-13 08:39:00,42.3,41.2,30.01,SE,135,0.7,1.6,96,0.00,,,0.00,pywws,2013-01-13 13:39:00,
2013-01-13 08:45:00,42.4,41.4,30.01,South,180,0.7,2.2,96,0.01,,,0.01,pywws,2013-01-13 13:45:00,
2013-01-13 08:51:00,42.4,41.4,30.01,SW,225,0.7,1.6,96,0.01,,,0.01,pywws,2013-01-13 13:51:00,
2013-01-13 08:56:00,42.4,41.4,30.01,South,180,0.7,1.6,96,0.01,,,0.01,pywws,2013-01-13 13:56:00,
2013-01-13 09:02:00,42.4,41.4,30.02,South,180,0.7,0.7,96,0.01,,,0.01,pywws,2013-01-13 14:02:00,
2013-01-13 09:07:00,42.4,41.4,30.02,North,-999,0.0,0.7,96,0.01,,,0.01,pywws,2013-01-13 14:07:00,
2013-01-13 09:13:00,42.6,41.8,30.02,North,-999,0.0,1.6,97,0.01,,,0.01,pywws,2013-01-13 14:13:00,
2013-01-13 09:19:00,42.6,41.8,30.02,North,-999,0.0,1.6,97,0.01,,,0.01,pywws,2013-01-13 14:19:00,
2013-01-13 09:24:00,42.8,41.7,30.03,North,-999,0.0,0.7,96,0.01,,,0.01,pywws,2013-01-13 14:24:00,
2013-01-13 09:30:00,42.8,41.7,30.03,North,-999,0.0,0.7,96,0.01,,,0.01,pywws,2013-01-13 14:30:00,
2013-01-13 09:35:00,43.0,41.9,30.03,SE,135,1.6,2.2,96,0.01,,,0.01,pywws,2013-01-13 14:35:00,
2013-01-13 09:41:00,43.0,41.9,30.03,North,-999,0.0,0.7,96,0.00,,,0.01,pywws,2013-01-13 14:41:00,
2013-01-13 09:47:00,43.2,42.1,30.03,South,180,0.7,2.2,96,0.00,,,0.01,pywws,2013-01-13 14:47:00,
2013-01-13 09:52:00,43.0,41.9,30.04,North,-999,0.0,0.7,96,0.00,,,0.01,pywws,2013-01-13 14:52:00,
2013-01-13 09:58:00,42.8,41.7,30.03,East,90,0.7,1.6,96,0.00,,,0.01,pywws,2013-01-13 14:58:00,
2013-01-13 10:03:00,42.8,41.7,30.04,North,-999,0.0,0.7,96,0.00,,,0.01,pywws,2013-01-13 15:03:00,
2013-01-13 10:09:00,43.0,41.9,30.03,South,180,0.7,1.6,96,0.00,,,0.01,pywws,2013-01-13 15:09:00,
2013-01-13 10:15:00,43.0,41.9,30.03,South,180,0.7,1.6,96,0.00,,,0.01,pywws,2013-01-13 15:15:00,
2013-01-13 10:20:00,43.0,41.9,30.04,North,-999,0.0,1.6,96,0.00,,,0.01,pywws,2013-01-13 15:20:00,
2013-01-13 10:26:00,43.2,42.1,30.03,SE,135,0.7,1.6,96,0.00,,,0.01,pywws,2013-01-13 15:26:00,
2013-01-13 10:31:00,43.2,42.1,30.04,North,-999,0.0,1.6,96,0.00,,,0.01,pywws,2013-01-13 15:31:00,
2013-01-13 10:37:00,43.3,42.3,30.03,North,-999,0.0,0.7,96,0.00,,,0.01,pywws,2013-01-13 15:37:00,
2013-01-13 10:43:00,43.3,42.3,30.03,East,90,0.7,1.6,96,0.00,,,0.01,pywws,2013-01-13 15:43:00,
2013-01-13 10:48:00,43.2,42.1,30.03,North,-999,0.0,0.7,96,0.00,,,0.01,pywws,2013-01-13 15:48:00,
2013-01-13 10:54:00,43.5,42.5,30.03,North,-999,0.0,0.7,96,0.00,,,0.01,pywws,2013-01-13 15:54:00,
2013-01-13 10:59:00,43.7,42.6,30.03,SW,225,0.7,1.6,96,0.00,,,0.01,pywws,2013-01-13 15:59:00,
2013-01-13 11:05:00,43.3,42.3,30.03,ESE,112,0.7,1.6,96,0.00,,,0.01,pywws,2013-01-13 16:05:00,
2013-01-13 11:11:00,43.5,42.5,30.03,North,-999,0.0,0.7,96,0.00,,,0.01,pywws,2013-01-13 16:11:00,
2013-01-13 11:16:00,43.5,42.5,30.03,SE,135,1.6,2.2,96,0.00,,,0.01,pywws,2013-01-13 16:16:00,
2013-01-13 11:22:00,43.5,42.5,30.02,South,180,0.7,1.6,96,0.00,,,0.01,pywws,2013-01-13 16:22:00,
2013-01-13 11:27:00,43.5,42.5,30.02,North,-999,0.0,0.7,96,0.00,,,0.01,pywws,2013-01-13 16:27:00,
2013-01-13 11:33:00,43.5,42.5,30.02,North,-999,0.0,1.6,96,0.00,,,0.01,pywws,2013-01-13 16:33:00,
2013-01-13 11:39:00,43.5,42.5,30.02,South,180,0.7,1.6,96,0.00,,,0.01,pywws,2013-01-13 16:39:00,
2013-01-13 11:44:00,43.5,42.5,30.01,North,-999,0.0,1.6,96,0.00,,,0.01,pywws,2013-01-13 16:44:00,
2013-01-13 11:50:00,43.7,42.6,30.01,East,90,0.7,1.6,96,0.00,,,0.01,pywws,2013-01-13 16:50:00,
2013-01-13 11:55:00,43.7,42.6,30.01,North,-999,0.0,0.7,96,0.00,,,0.01,pywws,2013-01-13 16:55:00,
2013-01-13 12:01:00,43.9,42.8,30.01,North,-999,0.0,0.0,96,0.00,,,0.01,pywws,2013-01-13 17:01:00,
2013-01-13 12:07:00,43.9,42.8,30.01,West,270,0.7,1.6,96,0.00,,,0.01,pywws,2013-01-13 17:07:00,
2013-01-13 12:12:00,44.2,43.2,30.01,West,270,1.6,3.1,96,0.00,,,0.01,pywws,2013-01-13 17:12:00,
2013-01-13 12:18:00,44.1,43.0,30.01,South,180,0.7,1.6,96,0.00,,,0.01,pywws,2013-01-13 17:18:00,
2013-01-13 12:23:00,44.1,43.0,30.00,SW,225,0.7,1.6,96,0.00,,,0.01,pywws,2013-01-13 17:23:00,
2013-01-13 12:29:00,44.1,43.0,30.00,North,-999,0.0,0.7,96,0.00,,,0.01,pywws,2013-01-13 17:29:00,
2013-01-13 12:35:00,44.2,43.2,30.00,West,270,0.7,1.6,96,0.00,,,0.01,pywws,2013-01-13 17:35:00,
2013-01-13 12:40:00,44.2,43.2,30.00,NW,315,0.7,1.6,96,0.00,,,0.01,pywws,2013-01-13 17:40:00,
2013-01-13 12:46:00,44.2,43.2,29.99,West,270,1.6,2.2,96,0.00,,,0.01,pywws,2013-01-13 17:46:00,
2013-01-13 12:51:00,44.4,43.4,29.98,North,-999,0.0,0.0,96,0.00,,,0.01,pywws,2013-01-13 17:51:00,
2013-01-13 12:57:00,44.6,43.3,29.98,SE,135,0.7,1.6,95,0.00,,,0.01,pywws,2013-01-13 17:57:00,
2013-01-13 13:03:00,44.6,43.3,29.97,North,-999,0.0,0.7,95,0.00,,,0.01,pywws,2013-01-13 18:03:00,
2013-01-13 13:08:00,44.8,43.7,29.97,North,-999,0.0,1.6,96,0.00,,,0.01,pywws,2013-01-13 18:08:00,
2013-01-13 13:14:00,45.0,43.9,29.97,South,180,0.7,2.2,96,0.00,,,0.01,pywws,2013-01-13 18:14:00,
2013-01-13 13:19:00,45.0,43.9,29.97,North,-999,0.0,0.7,96,0.00,,,0.01,pywws,2013-01-13 18:19:00,
2013-01-13 13:25:00,45.0,43.9,29.96,North,-999,0.0,0.7,96,0.00,,,0.01,pywws,2013-01-13 18:25:00,
2013-01-13 13:31:00,45.1,44.1,29.95,East,90,0.7,1.6,96,0.00,,,0.01,pywws,2013-01-13 18:31:00,
2013-01-13 13:36:00,45.1,44.1,29.96,South,180,0.7,1.6,96,0.00,,,0.01,pywws,2013-01-13 18:36:00,
2013-01-13 13:42:00,45.3,44.2,29.96,North,-999,0.0,0.7,96,0.00,,,0.01,pywws,2013-01-13 18:42:00,
2013-01-13 13:47:00,45.7,44.6,29.95,North,-999,0.0,1.6,96,0.00,,,0.01,pywws,2013-01-13 18:47:00,
2013-01-13 13:53:00,45.9,44.8,29.95,North,-999,0.0,1.6,96,0.00,,,0.01,pywws,2013-01-13 18:53:00,
2013-01-13 13:59:00,45.9,44.8,29.96,SE,135,0.7,2.2,96,0.00,,,0.01,pywws,2013-01-13 18:59:00,
2013-01-13 14:04:00,45.9,44.8,29.96,SE,135,0.7,1.6,96,0.00,,,0.01,pywws,2013-01-13 19:04:00,
2013-01-13 14:10:00,45.9,44.8,29.95,North,-999,0.0,0.7,96,0.00,,,0.01,pywws,2013-01-13 19:10:00,
2013-01-13 14:15:00,45.9,44.8,29.95,South,180,0.7,1.6,96,0.00,,,0.01,pywws,2013-01-13 19:15:00,
2013-01-13 14:21:00,46.0,45.0,29.96,South,180,0.7,2.2,96,0.00,,,0.01,pywws,2013-01-13 19:21:00,
2013-01-13 14:27:00,46.0,45.0,29.96,South,180,0.7,1.6,96,0.00,,,0.01,pywws,2013-01-13 19:27:00,
2013-01-13 14:32:00,46.0,45.0,29.96,South,180,0.7,1.6,96,0.00,,,0.01,pywws,2013-01-13 19:32:00,
2013-01-13 14:38:00,45.9,44.8,29.96,North,-999,0.0,0.7,96,0.00,,,0.01,pywws,2013-01-13 19:38:00,
2013-01-13 14:43:00,45.9,44.8,29.96,North,-999,0.0,0.7,96,0.00,,,0.01,pywws,2013-01-13 19:43:00,
2013-01-13 14:49:00,45.9,44.8,29.96,South,180,0.7,1.6,96,0.00,,,0.01,pywws,2013-01-13 19:49:00,
2013-01-13 14:55:00,45.9,44.8,29.95,North,-999,0.0,0.7,96,0.00,,,0.01,pywws,2013-01-13 19:55:00,
2013-01-13 15:00:00,45.9,44.8,29.95,North,-999,0.0,0.7,96,0.00,,,0.01,pywws,2013-01-13 20:00:00,
2013-01-13 15:06:00,45.9,44.8,29.95,South,180,0.7,2.2,96,0.00,,,0.01,pywws,2013-01-13 20:06:00,
2013-01-13 15:11:00,45.9,44.8,29.95,ESE,112,2.2,3.8,96,0.00,,,0.01,pywws,2013-01-13 20:11:00,
2013-01-13 15:17:00,45.9,44.8,29.96,South,180,0.7,2.2,96,0.00,,,0.01,pywws,2013-01-13 20:17:00,
2013-01-13 15:23:00,45.9,44.8,29.96,South,180,0.7,1.6,96,0.00,,,0.01,pywws,2013-01-13 20:23:00,
2013-01-13 15:28:00,45.9,44.8,29.95,SE,135,0.7,1.6,96,0.00,,,0.01,pywws,2013-01-13 20:28:00,
2013-01-13 15:34:00,45.9,44.8,29.94,SE,135,1.6,2.2,96,0.00,,,0.01,pywws,2013-01-13 20:34:00,
2013-01-13 15:39:00,45.9,44.8,29.94,SE,135,1.6,2.2,96,0.00,,,0.01,pywws,2013-01-13 20:39:00,
2013-01-13 15:45:00,45.9,44.8,29.94,South,180,0.7,1.6,96,0.00,,,0.01,pywws,2013-01-13 20:45:00,
2013-01-13 15:51:00,45.7,44.6,29.94,SE,135,2.2,3.8,96,0.00,,,0.01,pywws,2013-01-13 20:51:00,
2013-01-13 15:56:00,45.7,44.6,29.95,North,-999,0.0,1.6,96,0.00,,,0.01,pywws,2013-01-13 20:56:00,
2013-01-13 16:02:00,45.7,44.6,29.94,SE,135,0.7,2.2,96,0.00,,,0.01,pywws,2013-01-13 21:02:00,
2013-01-13 16:07:00,45.7,44.6,29.94,SE,135,0.7,1.6,96,0.00,,,0.01,pywws,2013-01-13 21:07:00,
2013-01-13 16:13:00,45.7,44.6,29.94,South,180,1.6,2.2,96,0.00,,,0.01,pywws,2013-01-13 21:13:00,
2013-01-13 16:19:00,45.5,44.4,29.94,South,180,1.6,2.2,96,0.00,,,0.01,pywws,2013-01-13 21:19:00,
2013-01-13 16:24:00,45.5,44.4,29.94,South,180,0.7,2.2,96,0.00,,,0.01,pywws,2013-01-13 21:24:00,
2013-01-13 16:30:00,45.3,44.2,29.93,SW,225,0.7,2.2,96,0.00,,,0.01,pywws,2013-01-13 21:30:00,
2013-01-13 16:35:00,45.3,44.2,29.93,North,-999,0.0,0.0,96,0.00,,,0.01,pywws,2013-01-13 21:35:00,
2013-01-13 16:41:00,45.3,44.2,29.94,North,-999,0.0,0.7,96,0.00,,,0.01,pywws,2013-01-13 21:41:00,
2013-01-13 16:47:00,45.3,44.2,29.94,North,-999,0.0,0.7,96,0.00,,,0.01,pywws,2013-01-13 21:47:00,
2013-01-13 16:52:00,45.1,44.1,29.93,South,180,1.6,3.1,96,0.00,,,0.01,pywws,2013-01-13 21:52:00,
2013-01-13 16:58:00,45.1,44.1,29.93,North,-999,0.0,0.0,96,0.00,,,0.01,pywws,2013-01-13 21:58:00,
2013-01-13 17:03:00,45.1,44.1,29.94,WSW,248,0.7,2.2,96,0.00,,,0.01,pywws,2013-01-13 22:03:00,
2013-01-13 17:09:00,45.0,43.9,29.93,SW,225,1.6,2.2,96,0.00,,,0.01,pywws,2013-01-13 22:09:00,
2013-01-13 17:15:00,45.0,43.9,29.93,SE,135,1.6,2.2,96,0.00,,,0.01,pywws,2013-01-13 22:15:00,
2013-01-13 17:20:00,45.0,43.9,29.93,North,-999,0.0,1.6,96,0.00,,,0.01,pywws,2013-01-13 22:20:00,
2013-01-13 17:26:00,44.8,43.7,29.94,SE,135,0.7,1.6,96,0.00,,,0.01,pywws,2013-01-13 22:26:00,
2013-01-13 17:31:00,44.8,43.7,29.94,East,90,0.7,3.1,96,0.00,,,0.01,pywws,2013-01-13 22:31:00,
2013-01-13 17:37:00,44.8,43.7,29.93,SE,135,0.7,2.2,96,0.00,,,0.01,pywws,2013-01-13 22:37:00,
2013-01-13 17:43:00,44.6,43.5,29.93,SE,135,0.7,1.6,96,0.00,,,0.01,pywws,2013-01-13 22:43:00,
2013-01-13 17:48:00,44.6,43.5,29.94,South,180,0.7,1.6,96,0.00,,,0.01,pywws,2013-01-13 22:48:00,
2013-01-13 17:54:00,44.6,43.5,29.94,South,180,0.7,1.6,96,0.00,,,0.01,pywws,2013-01-13 22:54:00,
2013-01-13 17:59:00,44.6,43.5,29.93,North,-999,0.0,0.7,96,0.00,,,0.01,pywws,2013-01-13 22:59:00,
2013-01-13 18:05:00,44.4,43.6,29.92,NE,45,0.7,1.6,97,0.00,,,0.01,pywws,2013-01-13 23:05:00,
2013-01-13 18:11:00,44.4,43.6,29.93,North,-999,0.0,0.0,97,0.00,,,0.01,pywws,2013-01-13 23:11:00,
2013-01-13 18:16:00,44.4,43.6,29.93,North,-999,0.0,0.7,97,0.00,,,0.01,pywws,2013-01-13 23:16:00,
2013-01-13 18:22:00,44.4,43.6,29.93,North,-999,0.0,0.7,97,0.00,,,0.01,pywws,2013-01-13 23:22:00,
2013-01-13 18:27:00,44.4,43.6,29.94,West,270,0.7,1.6,97,0.00,,,0.01,pywws,2013-01-13 23:27:00,
2013-01-13 18:33:00,44.4,43.4,29.94,North,-999,0.0,1.6,96,0.00,,,0.01,pywws,2013-01-13 23:33:00,
2013-01-13 18:39:00,44.2,43.2,29.94,North,-999,0.0,0.0,96,0.00,,,0.01,pywws,2013-01-13 23:39:00,
2013-01-13 18:44:00,44.2,43.2,29.94,North,-999,0.0,0.0,96,0.00,,,0.01,pywws,2013-01-13 23:44:00,
2013-01-13 18:50:00,44.2,43.2,29.93,North,-999,0.0,0.7,96,0.00,,,0.01,pywws,2013-01-13 23:50:00,
2013-01-13 18:55:00,44.2,43.2,29.94,North,-999,0.0,0.0,96,0.00,,,0.01,pywws,2013-01-13 23:55:00,
2013-01-13 19:01:00,44.2,43.2,29.94,West,270,0.7,1.6,96,0.00,,,0.01,pywws,2013-01-14 00:01:00,
2013-01-13 19:07:00,44.2,43.2,29.93,North,-999,0.0,0.7,96,0.00,,,0.01,pywws,2013-01-14 00:07:00,
2013-01-13 19:12:00,44.2,43.2,29.93,North,-999,0.0,0.0,96,0.00,,,0.01,pywws,2013-01-14 00:12:00,
2013-01-13 19:18:00,44.2,43.2,29.93,North,-999,0.0,0.0,96,0.00,,,0.01,pywws,2013-01-14 00:18:00,
2013-01-13 19:24:00,44.2,43.2,29.93,North,-999,0.0,0.0,96,0.00,,,0.01,pywws,2013-01-14 00:24:00,
2013-01-13 19:29:00,44.2,43.2,29.93,North,-999,0.0,0.0,96,0.00,,,0.01,pywws,2013-01-14 00:29:00,
2013-01-13 19:35:00,44.2,43.2,29.93,North,-999,0.0,0.7,96,0.00,,,0.01,pywws,2013-01-14 00:35:00,
2013-01-13 19:40:00,44.2,43.2,29.93,North,-999,0.0,0.0,96,0.00,,,0.01,pywws,2013-01-14 00:40:00,
2013-01-13 19:46:00,44.2,43.2,29.93,North,-999,0.0,0.0,96,0.00,,,0.01,pywws,2013-01-14 00:46:00,
2013-01-13 19:51:00,44.2,43.2,29.93,North,-999,0.0,0.7,96,0.00,,,0.01,pywws,2013-01-14 00:51:00,
2013-01-13 19:57:00,44.2,43.2,29.93,North,-999,0.0,0.0,96,0.00,,,0.01,pywws,2013-01-14 00:57:00,
2013-01-13 20:03:00,44.2,43.2,29.93,North,-999,0.0,0.0,96,0.00,,,0.01,pywws,2013-01-14 01:03:00,
2013-01-13 20:08:00,44.2,43.2,29.93,North,-999,0.0,0.0,96,0.00,,,0.01,pywws,2013-01-14 01:08:00,
2013-01-13 20:14:00,44.2,43.2,29.93,North,-999,0.0,0.7,96,0.00,,,0.01,pywws,2013-01-14 01:14:00,
2013-01-13 20:19:00,44.2,43.2,29.94,North,-999,0.0,0.0,96,0.00,,,0.01,pywws,2013-01-14 01:19:00,
2013-01-13 20:25:00,44.2,43.2,29.93,North,-999,0.0,0.0,96,0.00,,,0.01,pywws,2013-01-14 01:25:00,
2013-01-13 20:31:00,44.2,43.2,29.93,North,-999,0.0,0.0,96,0.00,,,0.01,pywws,2013-01-14 01:31:00,
2013-01-13 20:36:00,44.2,43.2,29.93,North,-999,0.0,0.0,96,0.00,,,0.01,pywws,2013-01-14 01:36:00,
2013-01-13 20:42:00,44.2,43.2,29.92,North,-999,0.0,0.0,96,0.00,,,0.01,pywws,2013-01-14 01:42:00,
2013-01-13 20:47:00,44.2,43.2,29.93,North,-999,0.0,0.0,96,0.00,,,0.01,pywws,2013-01-14 01:47:00,
2013-01-13 20:53:00,44.2,43.2,29.92,North,-999,0.0,0.0,96,0.00,,,0.01,pywws,2013-01-14 01:53:00,
2013-01-13 20:59:00,44.2,43.2,29.91,North,-999,0.0,0.7,96,0.00,,,0.01,pywws,2013-01-14 01:59:00,
2013-01-13 21:04:00,44.2,43.2,29.92,North,-999,0.0,0.0,96,0.00,,,0.01,pywws,2013-01-14 02:04:00,
2013-01-13 21:10:00,44.2,43.2,29.91,North,-999,0.0,0.0,96,0.00,,,0.01,pywws,2013-01-14 02:10:00,
2013-01-13 21:15:00,44.2,43.2,29.91,North,-999,0.0,0.7,96,0.00,,,0.01,pywws,2013-01-14 02:15:00,
2013-01-13 21:21:00,44.2,43.2,29.91,North,-999,0.0,0.0,96,0.00,,,0.01,pywws,2013-01-14 02:21:00,
2013-01-13 21:27:00,44.2,43.2,29.92,North,-999,0.0,0.0,96,0.00,,,0.01,pywws,2013-01-14 02:27:00,
2013-01-13 21:32:00,44.2,43.2,29.91,North,-999,0.0,0.7,96,0.00,,,0.01,pywws,2013-01-14 02:32:00,
2013-01-13 21:38:00,44.1,43.0,29.91,North,-999,0.0,0.0,96,0.00,,,0.01,pywws,2013-01-14 02:38:00,
2013-01-13 21:44:00,44.1,43.0,29.91,North,-999,0.0,0.0,96,0.00,,,0.01,pywws,2013-01-14 02:44:00,
2013-01-13 21:49:00,44.1,43.0,29.91,North,-999,0.0,0.0,96,0.00,,,0.01,pywws,2013-01-14 02:49:00,
2013-01-13 21:55:00,44.1,43.0,29.91,North,-999,0.0,0.0,96,0.00,,,0.01,pywws,2013-01-14 02:55:00,
2013-01-13 22:00:00,44.1,43.0,29.91,North,-999,0.0,0.0,96,0.00,,,0.01,pywws,2013-01-14 03:00:00,
2013-01-13 22:06:00,44.1,43.0,29.91,North,-999,0.0,0.0,96,0.00,,,0.01,pywws,2013-01-14 03:06:00,
2013-01-13 22:11:00,44.1,43.0,29.91,North,-999,0.0,0.0,96,0.00,,,0.01,pywws,2013-01-14 03:11:00,
2013-01-13 22:17:00,44.1,43.0,29.91,North,-999,0.0,0.0,96,0.00,,,0.01,pywws,2013-01-14 03:17:00,
2013-01-13 22:23:00,44.1,43.0,29.92,North,-999,0.0,0.0,96,0.00,,,0.01,pywws,2013-01-14 03:23:00,
2013-01-13 22:28:00,44.1,43.0,29.91,North,-999,0.0,0.0,96,0.00,,,0.01,pywws,2013-01-14 03:28:00,
2013-01-13 22:34:00,44.1,43.0,29.91,North,-999,0.0,0.7,96,0.00,,,0.01,pywws,2013-01-14 03:34:00,
2013-01-13 22:39:00,44.2,43.2,29.91,North,-999,0.0,0.7,96,0.00,,,0.01,pywws,2013-01-14 03:39:00,
2013-01-13 22:45:00,44.2,43.2,29.91,North,-999,0.0,0.0,96,0.00,,,0.01,pywws,2013-01-14 03:45:00,
2013-01-13 22:51:00,44.2,43.2,29.91,North,-999,0.0,0.0,96,0.00,,,0.01,pywws,2013-01-14 03:51:00,
2013-01-13 22:56:00,44.2,43.4,29.91,North,-999,0.0,0.0,97,0.00,,,0.01,pywws,2013-01-14 03:56:00,
2013-01-13 23:02:00,44.2,43.2,29.91,North,-999,0.0,0.0,96,0.00,,,0.01,pywws,2013-01-14 04:02:00,
2013-01-13 23:07:00,44.1,43.0,29.91,North,-999,0.0,0.0,96,0.00,,,0.01,pywws,2013-01-14 04:07:00,
2013-01-13 23:13:00,44.4,43.6,29.91,North,-999,0.0,0.0,97,0.00,,,0.01,pywws,2013-01-14 04:13:00,
2013-01-13 23:19:00,44.2,43.4,29.91,North,-999,0.0,0.0,97,0.00,,,0.01,pywws,2013-01-14 04:19:00,
2013-01-13 23:24:00,44.4,43.6,29.90,North,-999,0.0,0.0,97,0.00,,,0.01,pywws,2013-01-14 04:24:00,
2013-01-13 23:30:00,44.4,43.6,29.91,North,-999,0.0,0.0,97,0.00,,,0.01,pywws,2013-01-14 04:30:00,
2013-01-13 23:35:00,44.6,43.5,29.90,North,-999,0.0,0.0,96,0.00,,,0.01,pywws,2013-01-14 04:35:00,
2013-01-13 23:41:00,44.6,43.5,29.90,North,-999,0.0,0.0,96,0.00,,,0.01,pywws,2013-01-14 04:41:00,
2013-01-13 23:47:00,44.6,43.5,29.90,North,-999,0.0,0.0,96,0.00,,,0.01,pywws,2013-01-14 04:47:00,
2013-01-13 23:52:00,44.6,43.5,29.90,North,-999,0.0,0.0,96,0.00,,,0.01,pywws,2013-01-14 04:52:00,
2013-01-13 23:58:00,44.6,43.5,29.90,North,-999,0.0,0.0,96,0.00,,,0.01,pywws,2013-01-14 04:58:00,